Airfield :
LOGIN :

Register | Disclaimer

   EN    FR    IT 

 










Legend :    VFR   Marginal VFR   IFR   Intensive IFR   Very Intensive IFR
Visi :
Ceiling :
>= 8 km
>= 3000ft
5 to 8 km
1000 to 3000 ft
1500m to 5 km
500 to 1000 ft
800 to 1500m
200 to 500 ft
< 800m
< 200 ft
Symbols :   Thunderstorms  Fog  Heavy snow  Heavy precipitations  Wind > 20 kt
SIGMETs :     Misc.  Thunderstorms  Icing  Turbulence  Mountain Waves  Volcanic Ashes






- Airport Elevation : 50 ft
- IATA code : KOI


EGPA - Kirkwall

CURRENT METAR :
  • 301420Z 17018KT 9999 -RA SCT006 BKN010 BKN016 12/11 Q0996

EXPIRED METARs :
  • 301350Z 17020KT 7000 -RA SCT006 BKN010 BKN019 12/11 Q0996
  • 301320Z 17020KT 7000 -RA SCT006 BKN009 BKN020 12/11 Q0997
  • 301250Z 17021G32KT 6000 -DZ FEW004 SCT006 BKN011 12/10 Q0997
  • 301220Z 17022KT 8000 -DZ FEW006 SCT009 BKN016 12/10 Q0997
  • 301150Z 17023KT 8000 VCSH SCT009 BKN035 12/10 Q0997

TAF AMD TAF EGPA
Valid from the 30 at 13:00 until the 30 at 21:00 UTC


301344Z 3013/3021 17020KT 9999 BKN020
BECMG 3013/3016 19010KT
TEMPO 3013/3021 6000 RA BKN009
PROB30
TEMPO 3012/3021 4000 RADZ BKN006
BECMG 3018/3021 32012KT



MET'MAP, your aeronautical weather chart ! - Copyright ORBIFLY December 2007 - Disclaimer

ORBIFLY MET'MAP TEAM :

Programming & Development : Alexandra Zaïnal
Concept & original design : Baudouin d'Aumeries
Assistance for programming : Marc-Olivier Méhu
Technical & hardware support : Manuel Goepfert

Contact : metmap@orbifly.com




SOURCES & CREDITS :

   NOAA